Orchard, CO (80649)

11:57 PM MST on February 07, 2016 (GMT -0700)
1 Mile North - Orchard, CO | | Change Station
CLOSE
Current Station
Personal Weather Station
Location: Orchard, CO
Elevation: 4439 ft
Nearby Weather Stations

Elev 4439 ft 40.35 °N, 104.11 °W | Updated 5 seconds ago

Partly Cloudy
Partly Cloudy
20.3 °F
Feels Like 9 °F
N
9.9
Wind Variable Wind from West

Today
High -- | Low -- °F
--% Chance of Precip.
Yesterday
High -- | Low -- °F
Precip. -- in
Pressure 30.41 in
Visibility 10.0 miles
Clouds Scattered Clouds 8500 ft
Windchill 9 °F
Dew Point 16 °F
Humidity 84%
Rainfall 0.00 in
Snow Depth Not available.
6:59 AM 5:21 PM
Waning Crescent, 0% visible
METAR KFMM 080635Z AUTO 29008KT 10SM SCT085 M09/M12 A3041 RMK AO2 T10931122
Pressure 30.41 in
Visibility 10.0 miles
Clouds Scattered Clouds 8500 ft
Windchill 9 °F
Dew Point 16 °F
Humidity 84%
Rainfall 0.00 in
Snow Depth Not available.
6:59 AM 5:21 PM
Waning Crescent, 0% visible
METAR KFMM 080635Z AUTO 29008KT 10SM SCT085 M09/M12 A3041 RMK AO2 T10931122

10-Day Weather Forecast

Almanac

Astronomy

Feb. 07, 2016 Rise Set
Actual Time
Civil Twilight
Nautical Twilight
Astronomical Twilight
Moon
Length of Visible Light
Length of Day
Tomorrow will be .
, % of the Moon is Illuminated

Today's Extremes

State Highs State Lows

Community

WunderPhotos

Upload Photos

1,891,395 photos uploaded!

WunderBlog® & News

Nearby

Air Quality

  Air Quality AQ Index Pollutant
Not available.

Snow Depth

Station Depth Elevation

Earthquake Activity

City Distance Mag. Time & Date
Minimum magnitude displayed is 2.5.

Coastal Water Temperatures

Place Temperature

Stations

Nearby Weather Stations

Station Location Temp. Windchill Dew Point Humidity Wind Precip. Elev Updated Type
                   

Watches & Warnings

There are currently no watches in effect.